sensor_id;sensor_type;location;lat;lon;timestamp;temperature;humidity
11989;DHT22;6054;50.966;7.094;2023-04-09T00:01:54;17.10;48.10
11989;DHT22;6054;50.966;7.094;2023-04-09T00:04:21;17.10;48.20
11989;DHT22;6054;50.966;7.094;2023-04-09T00:06:48;17.20;48.40
11989;DHT22;6054;50.966;7.094;2023-04-09T00:09:15;17.00;48.50
11989;DHT22;6054;50.966;7.094;2023-04-09T00:11:43;17.00;48.50
11989;DHT22;6054;50.966;7.094;2023-04-09T00:14:09;17.00;48.60
11989;DHT22;6054;50.966;7.094;2023-04-09T00:16:36;17.20;48.80
11989;DHT22;6054;50.966;7.094;2023-04-09T00:19:03;17.00;48.60
11989;DHT22;6054;50.966;7.094;2023-04-09T00:21:30;17.20;48.70
11989;DHT22;6054;50.966;7.094;2023-04-09T00:23:57;17.00;48.80
11989;DHT22;6054;50.966;7.094;2023-04-09T00:26:23;17.30;49.10
11989;DHT22;6054;50.966;7.094;2023-04-09T00:28:51;16.90;48.70
11989;DHT22;6054;50.966;7.094;2023-04-09T00:31:18;16.90;48.50
11989;DHT22;6054;50.966;7.094;2023-04-09T00:33:45;16.90;48.40
11989;DHT22;6054;50.966;7.094;2023-04-09T00:36:11;16.90;48.60
11989;DHT22;6054;50.966;7.094;2023-04-09T00:38:38;16.90;48.50
11989;DHT22;6054;50.966;7.094;2023-04-09T00:41:05;17.10;48.90
11989;DHT22;6054;50.966;7.094;2023-04-09T00:43:32;16.80;48.80
11989;DHT22;6054;50.966;7.094;2023-04-09T00:46:00;16.80;48.90
11989;DHT22;6054;50.966;7.094;2023-04-09T00:48:27;16.80;48.90
11989;DHT22;6054;50.966;7.094;2023-04-09T00:50:54;16.80;48.80
11989;DHT22;6054;50.966;7.094;2023-04-09T00:53:21;16.80;48.90
11989;DHT22;6054;50.966;7.094;2023-04-09T00:55:47;16.80;49.00
11989;DHT22;6054;50.966;7.094;2023-04-09T00:58:14;16.80;49.60
11989;DHT22;6054;50.966;7.094;2023-04-09T01:00:41;16.80;49.00
11989;DHT22;6054;50.966;7.094;2023-04-09T01:03:09;16.70;48.80
11989;DHT22;6054;50.966;7.094;2023-04-09T01:05:43;16.80;48.80
11989;DHT22;6054;50.966;7.094;2023-04-09T01:08:17;16.70;49.20
11989;DHT22;6054;50.966;7.094;2023-04-09T01:10:48;16.70;49.30
11989;DHT22;6054;50.966;7.094;2023-04-09T01:13:22;16.80;49.30
11989;DHT22;6054;50.966;7.094;2023-04-09T01:15:56;16.70;49.20
11989;DHT22;6054;50.966;7.094;2023-04-09T01:18:30;16.70;49.20
11989;DHT22;6054;50.966;7.094;2023-04-09T01:21:01;16.70;49.20
11989;DHT22;6054;50.966;7.094;2023-04-09T01:23:36;16.60;49.20
11989;DHT22;6054;50.966;7.094;2023-04-09T01:26:14;16.60;49.30
11989;DHT22;6054;50.966;7.094;2023-04-09T01:28:47;16.60;49.30
11989;DHT22;6054;50.966;7.094;2023-04-09T01:31:17;16.60;49.20
11989;DHT22;6054;50.966;7.094;2023-04-09T01:33:45;16.60;49.30
11989;DHT22;6054;50.966;7.094;2023-04-09T01:36:13;16.60;49.00
11989;DHT22;6054;50.966;7.094;2023-04-09T01:38:41;16.50;49.00
11989;DHT22;6054;50.966;7.094;2023-04-09T01:41:10;16.50;49.00
11989;DHT22;6054;50.966;7.094;2023-04-09T01:43:38;16.50;49.00
11989;DHT22;6054;50.966;7.094;2023-04-09T01:46:07;16.40;48.90
11989;DHT22;6054;50.966;7.094;2023-04-09T01:48:35;16.20;48.90
11989;DHT22;6054;50.966;7.094;2023-04-09T01:51:03;16.40;49.00
11989;DHT22;6054;50.966;7.094;2023-04-09T01:53:30;16.40;48.90
11989;DHT22;6054;50.966;7.094;2023-04-09T01:55:58;16.30;48.60
11989;DHT22;6054;50.966;7.094;2023-04-09T01:58:25;16.30;48.60
11989;DHT22;6054;50.966;7.094;2023-04-09T02:00:58;16.20;48.40
11989;DHT22;6054;50.966;7.094;2023-04-09T02:03:30;16.20;48.70
11989;DHT22;6054;50.966;7.094;2023-04-09T02:06:06;16.20;48.80
11989;DHT22;6054;50.966;7.094;2023-04-09T02:08:33;16.10;48.60
11989;DHT22;6054;50.966;7.094;2023-04-09T02:11:03;16.10;48.70
11989;DHT22;6054;50.966;7.094;2023-04-09T02:13:31;16.10;48.70
11989;DHT22;6054;50.966;7.094;2023-04-09T02:16:00;16.00;48.50
11989;DHT22;6054;50.966;7.094;2023-04-09T02:18:29;16.00;48.60
11989;DHT22;6054;50.966;7.094;2023-04-09T02:20:57;16.00;48.30
11989;DHT22;6054;50.966;7.094;2023-04-09T02:23:25;15.90;48.20
11989;DHT22;6054;50.966;7.094;2023-04-09T02:25:52;15.90;48.40
11989;DHT22;6054;50.966;7.094;2023-04-09T02:28:19;15.90;48.30
11989;DHT22;6054;50.966;7.094;2023-04-09T02:30:46;16.00;48.30
11989;DHT22;6054;50.966;7.094;2023-04-09T02:33:13;15.80;48.00
11989;DHT22;6054;50.966;7.094;2023-04-09T02:35:41;15.80;48.00
11989;DHT22;6054;50.966;7.094;2023-04-09T02:38:08;15.70;47.90
11989;DHT22;6054;50.966;7.094;2023-04-09T02:40:38;15.70;48.10
11989;DHT22;6054;50.966;7.094;2023-04-09T02:43:05;15.60;48.10
11989;DHT22;6054;50.966;7.094;2023-04-09T02:45:32;15.60;47.80
11989;DHT22;6054;50.966;7.094;2023-04-09T02:47:58;15.60;47.80
11989;DHT22;6054;50.966;7.094;2023-04-09T02:50:25;15.50;47.70
11989;DHT22;6054;50.966;7.094;2023-04-09T02:52:53;15.50;47.70
11989;DHT22;6054;50.966;7.094;2023-04-09T02:55:20;15.70;47.90
11989;DHT22;6054;50.966;7.094;2023-04-09T02:57:47;15.40;47.60
11989;DHT22;6054;50.966;7.094;2023-04-09T03:00:14;15.40;47.60
11989;DHT22;6054;50.966;7.094;2023-04-09T03:02:40;15.30;47.40
11989;DHT22;6054;50.966;7.094;2023-04-09T03:05:08;15.30;47.70
11989;DHT22;6054;50.966;7.094;2023-04-09T03:07:34;15.20;47.70
11989;DHT22;6054;50.966;7.094;2023-04-09T03:10:03;14.90;47.20
11989;DHT22;6054;50.966;7.094;2023-04-09T03:12:30;15.20;47.80
11989;DHT22;6054;50.966;7.094;2023-04-09T03:14:56;15.10;47.60
11989;DHT22;6054;50.966;7.094;2023-04-09T03:17:23;15.10;47.50
11989;DHT22;6054;50.966;7.094;2023-04-09T03:19:51;15.10;47.70
11989;DHT22;6054;50.966;7.094;2023-04-09T03:22:18;15.00;47.50
11989;DHT22;6054;50.966;7.094;2023-04-09T03:24:45;15.00;47.60
11989;DHT22;6054;50.966;7.094;2023-04-09T03:27:13;15.00;47.50
11989;DHT22;6054;50.966;7.094;2023-04-09T03:29:40;14.90;47.60
11989;DHT22;6054;50.966;7.094;2023-04-09T03:32:06;15.10;47.80
11989;DHT22;6054;50.966;7.094;2023-04-09T03:34:33;15.00;47.70
11989;DHT22;6054;50.966;7.094;2023-04-09T03:37:00;14.80;47.50
11989;DHT22;6054;50.966;7.094;2023-04-09T03:39:27;14.80;47.40
11989;DHT22;6054;50.966;7.094;2023-04-09T03:41:55;15.10;47.50
11989;DHT22;6054;50.966;7.094;2023-04-09T03:44:23;14.80;47.40
11989;DHT22;6054;50.966;7.094;2023-04-09T03:46:50;14.70;47.40
11989;DHT22;6054;50.966;7.094;2023-04-09T03:49:17;14.90;47.70
11989;DHT22;6054;50.966;7.094;2023-04-09T03:51:43;14.70;47.30
11989;DHT22;6054;50.966;7.094;2023-04-09T03:54:10;14.60;47.50
11989;DHT22;6054;50.966;7.094;2023-04-09T03:56:37;14.70;47.70
11989;DHT22;6054;50.966;7.094;2023-04-09T03:59:04;14.60;47.50
11989;DHT22;6054;50.966;7.094;2023-04-09T04:01:32;14.60;47.60
11989;DHT22;6054;50.966;7.094;2023-04-09T04:03:59;14.70;47.60
11989;DHT22;6054;50.966;7.094;2023-04-09T04:06:26;14.80;47.70
11989;DHT22;6054;50.966;7.094;2023-04-09T04:08:52;14.80;47.50
11989;DHT22;6054;50.966;7.094;2023-04-09T04:11:19;14.40;47.20
11989;DHT22;6054;50.966;7.094;2023-04-09T04:13:46;14.70;47.60
11989;DHT22;6054;50.966;7.094;2023-04-09T04:16:12;14.40;47.40
11989;DHT22;6054;50.966;7.094;2023-04-09T04:18:40;14.30;47.30
11989;DHT22;6054;50.966;7.094;2023-04-09T04:21:11;14.60;47.30
11989;DHT22;6054;50.966;7.094;2023-04-09T04:23:38;14.50;47.70
11989;DHT22;6054;50.966;7.094;2023-04-09T04:26:06;14.20;47.10
11989;DHT22;6054;50.966;7.094;2023-04-09T04:28:34;14.20;47.30
11989;DHT22;6054;50.966;7.094;2023-04-09T04:31:01;14.20;47.20
11989;DHT22;6054;50.966;7.094;2023-04-09T04:33:27;14.20;47.30
11989;DHT22;6054;50.966;7.094;2023-04-09T04:36:04;14.10;47.00
11989;DHT22;6054;50.966;7.094;2023-04-09T04:38:31;14.10;47.40
11989;DHT22;6054;50.966;7.094;2023-04-09T04:40:58;14.30;48.10
11989;DHT22;6054;50.966;7.094;2023-04-09T04:43:25;14.10;47.00
11989;DHT22;6054;50.966;7.094;2023-04-09T04:45:52;14.00;47.10
11989;DHT22;6054;50.966;7.094;2023-04-09T04:48:18;14.00;47.10
11989;DHT22;6054;50.966;7.094;2023-04-09T04:50:45;13.90;46.90
11989;DHT22;6054;50.966;7.094;2023-04-09T04:53:14;14.10;47.00
11989;DHT22;6054;50.966;7.094;2023-04-09T04:55:40;14.20;47.30
11989;DHT22;6054;50.966;7.094;2023-04-09T04:58:07;13.90;47.00
11989;DHT22;6054;50.966;7.094;2023-04-09T05:00:34;13.90;47.10
11989;DHT22;6054;50.966;7.094;2023-04-09T05:03:00;13.80;47.00
11989;DHT22;6054;50.966;7.094;2023-04-09T05:05:27;13.80;47.10
11989;DHT22;6054;50.966;7.094;2023-04-09T05:07:54;13.80;47.00
11989;DHT22;6054;50.966;7.094;2023-04-09T05:10:22;13.80;47.20
11989;DHT22;6054;50.966;7.094;2023-04-09T05:12:49;14.00;47.40
11989;DHT22;6054;50.966;7.094;2023-04-09T05:15:16;13.70;47.30
11989;DHT22;6054;50.966;7.094;2023-04-09T05:17:43;13.70;47.20
11989;DHT22;6054;50.966;7.094;2023-04-09T05:20:10;13.70;47.30
11989;DHT22;6054;50.966;7.094;2023-04-09T05:22:37;13.70;47.70
11989;DHT22;6054;50.966;7.094;2023-04-09T05:25:05;13.70;47.60
11989;DHT22;6054;50.966;7.094;2023-04-09T05:27:34;13.70;48.00
11989;DHT22;6054;50.966;7.094;2023-04-09T05:30:01;13.70;47.60
11989;DHT22;6054;50.966;7.094;2023-04-09T05:32:27;13.70;47.80
11989;DHT22;6054;50.966;7.094;2023-04-09T05:34:54;13.70;47.60
11989;DHT22;6054;50.966;7.094;2023-04-09T05:37:21;13.70;47.60
11989;DHT22;6054;50.966;7.094;2023-04-09T05:39:48;13.70;47.80
11989;DHT22;6054;50.966;7.094;2023-04-09T05:42:14;13.90;47.90
11989;DHT22;6054;50.966;7.094;2023-04-09T05:44:43;14.00;48.00
11989;DHT22;6054;50.966;7.094;2023-04-09T05:47:10;13.90;48.10
11989;DHT22;6054;50.966;7.094;2023-04-09T05:49:36;13.70;48.00
11989;DHT22;6054;50.966;7.094;2023-04-09T05:52:03;13.70;48.00
11989;DHT22;6054;50.966;7.094;2023-04-09T05:54:30;13.70;48.50
11989;DHT22;6054;50.966;7.094;2023-04-09T05:56:57;13.80;48.60
11989;DHT22;6054;50.966;7.094;2023-04-09T05:59:23;13.80;48.70
11989;DHT22;6054;50.966;7.094;2023-04-09T06:01:51;13.80;48.80
11989;DHT22;6054;50.966;7.094;2023-04-09T06:04:18;13.90;48.80
11989;DHT22;6054;50.966;7.094;2023-04-09T06:06:45;13.90;48.80
11989;DHT22;6054;50.966;7.094;2023-04-09T06:09:12;13.90;49.10
11989;DHT22;6054;50.966;7.094;2023-04-09T06:11:39;14.20;49.30
11989;DHT22;6054;50.966;7.094;2023-04-09T06:14:05;14.30;49.40
11989;DHT22;6054;50.966;7.094;2023-04-09T06:16:32;14.10;49.40
11989;DHT22;6054;50.966;7.094;2023-04-09T06:19:00;14.10;49.40
11989;DHT22;6054;50.966;7.094;2023-04-09T06:21:27;14.20;49.40
11989;DHT22;6054;50.966;7.094;2023-04-09T06:23:55;14.50;49.40
11989;DHT22;6054;50.966;7.094;2023-04-09T06:26:22;14.30;49.30
11989;DHT22;6054;50.966;7.094;2023-04-09T06:28:48;14.40;49.40
11989;DHT22;6054;50.966;7.094;2023-04-09T06:31:15;14.50;49.20
11989;DHT22;6054;50.966;7.094;2023-04-09T06:33:42;14.50;49.20
11989;DHT22;6054;50.966;7.094;2023-04-09T06:36:10;14.50;49.00
11989;DHT22;6054;50.966;7.094;2023-04-09T06:38:37;14.60;49.70
11989;DHT22;6054;50.966;7.094;2023-04-09T06:41:03;14.70;48.80
11989;DHT22;6054;50.966;7.094;2023-04-09T06:43:32;14.70;48.80
11989;DHT22;6054;50.966;7.094;2023-04-09T06:45:59;14.80;48.40
11989;DHT22;6054;50.966;7.094;2023-04-09T06:48:26;14.80;48.10
11989;DHT22;6054;50.966;7.094;2023-04-09T06:50:52;14.80;48.00
11989;DHT22;6054;50.966;7.094;2023-04-09T06:53:21;14.80;47.80
11989;DHT22;6054;50.966;7.094;2023-04-09T06:55:47;14.90;48.10
11989;DHT22;6054;50.966;7.094;2023-04-09T06:58:14;15.00;48.00
11989;DHT22;6054;50.966;7.094;2023-04-09T07:00:41;15.00;48.20
11989;DHT22;6054;50.966;7.094;2023-04-09T07:03:08;15.10;48.10
11989;DHT22;6054;50.966;7.094;2023-04-09T07:05:35;15.10;47.90
11989;DHT22;6054;50.966;7.094;2023-04-09T07:08:01;15.20;47.90
11989;DHT22;6054;50.966;7.094;2023-04-09T07:10:29;15.30;47.80
11989;DHT22;6054;50.966;7.094;2023-04-09T07:12:56;15.30;47.50
11989;DHT22;6054;50.966;7.094;2023-04-09T07:15:23;15.40;47.40
11989;DHT22;6054;50.966;7.094;2023-04-09T07:17:50;15.40;47.00
11989;DHT22;6054;50.966;7.094;2023-04-09T07:20:17;15.40;47.00
11989;DHT22;6054;50.966;7.094;2023-04-09T07:22:43;15.40;46.80
11989;DHT22;6054;50.966;7.094;2023-04-09T07:25:10;15.50;47.10
11989;DHT22;6054;50.966;7.094;2023-04-09T07:27:38;15.50;47.00
11989;DHT22;6054;50.966;7.094;2023-04-09T07:30:06;15.60;46.90
11989;DHT22;6054;50.966;7.094;2023-04-09T07:32:33;15.70;47.00
11989;DHT22;6054;50.966;7.094;2023-04-09T07:35:00;15.60;46.40
11989;DHT22;6054;50.966;7.094;2023-04-09T07:37:26;15.70;46.60
11989;DHT22;6054;50.966;7.094;2023-04-09T07:39:53;15.80;46.80
11989;DHT22;6054;50.966;7.094;2023-04-09T07:42:21;15.90;47.10
11989;DHT22;6054;50.966;7.094;2023-04-09T07:44:49;16.00;47.20
11989;DHT22;6054;50.966;7.094;2023-04-09T07:47:15;16.10;46.80
11989;DHT22;6054;50.966;7.094;2023-04-09T07:49:42;16.20;46.20
11989;DHT22;6054;50.966;7.094;2023-04-09T07:52:09;16.30;46.00
11989;DHT22;6054;50.966;7.094;2023-04-09T07:54:36;16.40;46.00
11989;DHT22;6054;50.966;7.094;2023-04-09T07:57:02;16.50;46.10
11989;DHT22;6054;50.966;7.094;2023-04-09T07:59:29;16.50;45.60
11989;DHT22;6054;50.966;7.094;2023-04-09T08:01:57;16.70;45.40
11989;DHT22;6054;50.966;7.094;2023-04-09T08:04:25;16.80;45.50
11989;DHT22;6054;50.966;7.094;2023-04-09T08:06:52;16.90;45.30
11989;DHT22;6054;50.966;7.094;2023-04-09T08:09:19;17.00;45.40
11989;DHT22;6054;50.966;7.094;2023-04-09T08:11:46;17.10;45.60
11989;DHT22;6054;50.966;7.094;2023-04-09T08:14:13;17.10;45.30
11989;DHT22;6054;50.966;7.094;2023-04-09T08:16:42;17.20;44.60
11989;DHT22;6054;50.966;7.094;2023-04-09T08:19:10;17.30;44.20
11989;DHT22;6054;50.966;7.094;2023-04-09T08:21:38;17.40;44.00
11989;DHT22;6054;50.966;7.094;2023-04-09T08:24:07;17.50;43.90
11989;DHT22;6054;50.966;7.094;2023-04-09T08:26:35;17.60;43.50
11989;DHT22;6054;50.966;7.094;2023-04-09T08:29:03;17.60;42.70
11989;DHT22;6054;50.966;7.094;2023-04-09T08:31:29;17.70;42.90
11989;DHT22;6054;50.966;7.094;2023-04-09T08:33:56;17.70;42.60
11989;DHT22;6054;50.966;7.094;2023-04-09T08:36:24;17.80;42.40
11989;DHT22;6054;50.966;7.094;2023-04-09T08:38:52;17.90;42.70
11989;DHT22;6054;50.966;7.094;2023-04-09T08:41:21;18.00;42.60
11989;DHT22;6054;50.966;7.094;2023-04-09T08:43:49;18.00;42.60
11989;DHT22;6054;50.966;7.094;2023-04-09T08:46:17;18.10;42.20
11989;DHT22;6054;50.966;7.094;2023-04-09T08:48:44;18.20;41.90
11989;DHT22;6054;50.966;7.094;2023-04-09T08:51:12;18.20;42.00
11989;DHT22;6054;50.966;7.094;2023-04-09T08:53:43;18.30;41.20
11989;DHT22;6054;50.966;7.094;2023-04-09T08:56:12;18.40;41.30
11989;DHT22;6054;50.966;7.094;2023-04-09T08:58:41;18.50;41.10
11989;DHT22;6054;50.966;7.094;2023-04-09T09:01:18;18.60;41.20
11989;DHT22;6054;50.966;7.094;2023-04-09T09:03:56;18.70;41.00
11989;DHT22;6054;50.966;7.094;2023-04-09T09:06:25;18.80;40.40
11989;DHT22;6054;50.966;7.094;2023-04-09T09:09:04;18.90;40.10
11989;DHT22;6054;50.966;7.094;2023-04-09T09:11:32;19.00;39.30
11989;DHT22;6054;50.966;7.094;2023-04-09T09:14:00;19.10;39.50
11989;DHT22;6054;50.966;7.094;2023-04-09T09:16:28;19.20;38.70
11989;DHT22;6054;50.966;7.094;2023-04-09T09:18:56;19.20;38.60
11989;DHT22;6054;50.966;7.094;2023-04-09T09:21:23;19.40;38.50
11989;DHT22;6054;50.966;7.094;2023-04-09T09:23:51;19.40;39.10
11989;DHT22;6054;50.966;7.094;2023-04-09T09:26:21;19.50;38.40
11989;DHT22;6054;50.966;7.094;2023-04-09T09:28:49;19.50;37.50
11989;DHT22;6054;50.966;7.094;2023-04-09T09:31:17;19.60;36.30
11989;DHT22;6054;50.966;7.094;2023-04-09T09:33:44;19.70;36.90
11989;DHT22;6054;50.966;7.094;2023-04-09T09:36:13;19.70;36.10
11989;DHT22;6054;50.966;7.094;2023-04-09T09:38:52;19.70;36.20
11989;DHT22;6054;50.966;7.094;2023-04-09T09:41:20;19.80;36.70
11989;DHT22;6054;50.966;7.094;2023-04-09T09:43:47;19.90;36.10
11989;DHT22;6054;50.966;7.094;2023-04-09T09:46:15;19.90;36.00
11989;DHT22;6054;50.966;7.094;2023-04-09T09:48:43;20.00;36.00
11989;DHT22;6054;50.966;7.094;2023-04-09T09:51:12;20.10;36.30
11989;DHT22;6054;50.966;7.094;2023-04-09T09:53:42;20.20;35.70
11989;DHT22;6054;50.966;7.094;2023-04-09T09:56:14;20.10;35.50
11989;DHT22;6054;50.966;7.094;2023-04-09T09:58:48;20.10;35.40
11989;DHT22;6054;50.966;7.094;2023-04-09T10:01:17;20.00;35.50
11989;DHT22;6054;50.966;7.094;2023-04-09T10:03:46;20.00;35.80
11989;DHT22;6054;50.966;7.094;2023-04-09T10:06:21;20.10;35.30
11989;DHT22;6054;50.966;7.094;2023-04-09T10:08:48;20.20;36.20
11989;DHT22;6054;50.966;7.094;2023-04-09T10:11:18;20.30;35.80
11989;DHT22;6054;50.966;7.094;2023-04-09T10:13:49;20.40;35.80
11989;DHT22;6054;50.966;7.094;2023-04-09T10:16:16;20.50;36.00
11989;DHT22;6054;50.966;7.094;2023-04-09T10:18:44;20.60;36.00
11989;DHT22;6054;50.966;7.094;2023-04-09T10:21:16;20.90;34.90
11989;DHT22;6054;50.966;7.094;2023-04-09T10:23:48;20.50;34.80
11989;DHT22;6054;50.966;7.094;2023-04-09T10:26:17;21.00;35.10
11989;DHT22;6054;50.966;7.094;2023-04-09T10:28:44;20.70;34.50
11989;DHT22;6054;50.966;7.094;2023-04-09T10:31:13;21.10;34.70
11989;DHT22;6054;50.966;7.094;2023-04-09T10:33:42;20.80;34.10
11989;DHT22;6054;50.966;7.094;2023-04-09T10:36:11;20.90;34.80
11989;DHT22;6054;50.966;7.094;2023-04-09T10:38:39;21.10;35.80
11989;DHT22;6054;50.966;7.094;2023-04-09T10:41:10;21.10;35.50
11989;DHT22;6054;50.966;7.094;2023-04-09T10:43:38;21.20;35.30
11989;DHT22;6054;50.966;7.094;2023-04-09T10:46:23;21.20;34.90
11989;DHT22;6054;50.966;7.094;2023-04-09T10:49:08;21.20;35.10
11989;DHT22;6054;50.966;7.094;2023-04-09T10:51:35;21.20;35.50
11989;DHT22;6054;50.966;7.094;2023-04-09T10:54:03;21.30;35.60
11989;DHT22;6054;50.966;7.094;2023-04-09T10:56:31;21.50;35.50
11989;DHT22;6054;50.966;7.094;2023-04-09T10:58:58;21.30;35.10
11989;DHT22;6054;50.966;7.094;2023-04-09T11:01:25;21.40;33.60
11989;DHT22;6054;50.966;7.094;2023-04-09T11:04:08;21.50;34.00
11989;DHT22;6054;50.966;7.094;2023-04-09T11:06:40;21.50;33.40
11989;DHT22;6054;50.966;7.094;2023-04-09T11:09:10;21.50;32.90
11989;DHT22;6054;50.966;7.094;2023-04-09T11:11:37;21.60;32.70
11989;DHT22;6054;50.966;7.094;2023-04-09T11:14:03;21.60;32.00
11989;DHT22;6054;50.966;7.094;2023-04-09T11:16:31;21.60;31.60
11989;DHT22;6054;50.966;7.094;2023-04-09T11:19:01;21.60;31.80
11989;DHT22;6054;50.966;7.094;2023-04-09T11:21:29;21.40;29.30
11989;DHT22;6054;50.966;7.094;2023-04-09T11:23:57;21.70;32.20
11989;DHT22;6054;50.966;7.094;2023-04-09T11:26:29;21.80;32.20
11989;DHT22;6054;50.966;7.094;2023-04-09T11:29:04;21.90;33.20
11989;DHT22;6054;50.966;7.094;2023-04-09T11:31:31;21.90;33.20
11989;DHT22;6054;50.966;7.094;2023-04-09T11:33:58;21.90;32.50
11989;DHT22;6054;50.966;7.094;2023-04-09T11:36:25;22.00;33.00
11989;DHT22;6054;50.966;7.094;2023-04-09T11:38:54;22.00;32.00
11989;DHT22;6054;50.966;7.094;2023-04-09T11:41:32;22.10;32.00
11989;DHT22;6054;50.966;7.094;2023-04-09T11:44:03;22.10;31.60
11989;DHT22;6054;50.966;7.094;2023-04-09T11:46:31;22.20;31.40
11989;DHT22;6054;50.966;7.094;2023-04-09T11:48:58;22.20;31.80
11989;DHT22;6054;50.966;7.094;2023-04-09T11:51:26;22.20;32.20
11989;DHT22;6054;50.966;7.094;2023-04-09T11:54:00;22.10;31.70
11989;DHT22;6054;50.966;7.094;2023-04-09T11:56:28;22.00;32.00
11989;DHT22;6054;50.966;7.094;2023-04-09T11:58:55;22.10;30.90
11989;DHT22;6054;50.966;7.094;2023-04-09T12:01:22;22.40;30.90
11989;DHT22;6054;50.966;7.094;2023-04-09T12:03:51;22.10;31.20
11989;DHT22;6054;50.966;7.094;2023-04-09T12:06:19;22.30;31.10
11989;DHT22;6054;50.966;7.094;2023-04-09T12:08:47;22.20;31.30
11989;DHT22;6054;50.966;7.094;2023-04-09T12:11:19;22.30;31.80
11989;DHT22;6054;50.966;7.094;2023-04-09T12:13:48;22.60;29.60
11989;DHT22;6054;50.966;7.094;2023-04-09T12:16:18;22.30;29.50
11989;DHT22;6054;50.966;7.094;2023-04-09T12:18:46;22.30;30.50
11989;DHT22;6054;50.966;7.094;2023-04-09T12:21:14;22.30;30.00
11989;DHT22;6054;50.966;7.094;2023-04-09T12:23:41;22.30;30.70
11989;DHT22;6054;50.966;7.094;2023-04-09T12:26:08;22.60;30.70
11989;DHT22;6054;50.966;7.094;2023-04-09T12:28:36;22.30;30.70
11989;DHT22;6054;50.966;7.094;2023-04-09T12:31:03;22.20;30.20
11989;DHT22;6054;50.966;7.094;2023-04-09T12:33:30;22.30;31.00
11989;DHT22;6054;50.966;7.094;2023-04-09T12:35:58;22.60;30.40
11989;DHT22;6054;50.966;7.094;2023-04-09T12:38:25;22.30;30.00
11989;DHT22;6054;50.966;7.094;2023-04-09T12:40:52;22.30;28.50
11989;DHT22;6054;50.966;7.094;2023-04-09T12:43:19;22.30;30.10
11989;DHT22;6054;50.966;7.094;2023-04-09T12:45:50;22.40;29.30
11989;DHT22;6054;50.966;7.094;2023-04-09T12:48:17;22.40;31.00
11989;DHT22;6054;50.966;7.094;2023-04-09T12:50:44;22.60;30.50
11989;DHT22;6054;50.966;7.094;2023-04-09T12:53:18;22.40;29.80
11989;DHT22;6054;50.966;7.094;2023-04-09T12:55:45;22.50;30.00
11989;DHT22;6054;50.966;7.094;2023-04-09T12:58:11;22.60;30.90
11989;DHT22;6054;50.966;7.094;2023-04-09T13:00:38;22.70;30.90
11989;DHT22;6054;50.966;7.094;2023-04-09T13:03:07;22.80;30.50
11989;DHT22;6054;50.966;7.094;2023-04-09T13:05:34;22.80;29.20
11989;DHT22;6054;50.966;7.094;2023-04-09T13:08:01;22.90;28.80
11989;DHT22;6054;50.966;7.094;2023-04-09T13:10:28;22.90;30.10
11989;DHT22;6054;50.966;7.094;2023-04-09T13:12:55;22.90;30.90
11989;DHT22;6054;50.966;7.094;2023-04-09T13:15:22;23.10;29.10
11989;DHT22;6054;50.966;7.094;2023-04-09T13:17:49;23.00;30.10
11989;DHT22;6054;50.966;7.094;2023-04-09T13:20:18;23.00;29.70
11989;DHT22;6054;50.966;7.094;2023-04-09T13:22:46;23.00;29.10
11989;DHT22;6054;50.966;7.094;2023-04-09T13:25:13;22.90;30.00
11989;DHT22;6054;50.966;7.094;2023-04-09T13:27:40;23.00;29.80
11989;DHT22;6054;50.966;7.094;2023-04-09T13:30:08;23.00;30.20
11989;DHT22;6054;50.966;7.094;2023-04-09T13:32:34;22.90;29.30
11989;DHT22;6054;50.966;7.094;2023-04-09T13:35:01;23.30;30.40
11989;DHT22;6054;50.966;7.094;2023-04-09T13:37:30;23.10;28.00
11989;DHT22;6054;50.966;7.094;2023-04-09T13:39:59;23.00;29.70
11989;DHT22;6054;50.966;7.094;2023-04-09T13:42:26;23.30;30.20
11989;DHT22;6054;50.966;7.094;2023-04-09T13:44:54;23.20;28.00
11989;DHT22;6054;50.966;7.094;2023-04-09T13:47:23;23.10;29.50
11989;DHT22;6054;50.966;7.094;2023-04-09T13:49:50;23.20;29.50
11989;DHT22;6054;50.966;7.094;2023-04-09T13:52:20;23.40;28.50
11989;DHT22;6054;50.966;7.094;2023-04-09T13:54:49;23.30;28.80
11989;DHT22;6054;50.966;7.094;2023-04-09T13:57:17;23.40;29.20
11989;DHT22;6054;50.966;7.094;2023-04-09T13:59:45;23.00;28.60
11989;DHT22;6054;50.966;7.094;2023-04-09T14:02:15;23.30;29.10
11989;DHT22;6054;50.966;7.094;2023-04-09T14:04:46;23.40;28.60
11989;DHT22;6054;50.966;7.094;2023-04-09T14:07:13;23.50;30.20
11989;DHT22;6054;50.966;7.094;2023-04-09T14:09:40;23.70;28.40
11989;DHT22;6054;50.966;7.094;2023-04-09T14:12:09;23.50;28.50
11989;DHT22;6054;50.966;7.094;2023-04-09T14:14:35;23.40;29.10
11989;DHT22;6054;50.966;7.094;2023-04-09T14:17:02;23.40;27.10
11989;DHT22;6054;50.966;7.094;2023-04-09T14:19:29;23.40;28.20
11989;DHT22;6054;50.966;7.094;2023-04-09T14:21:56;23.50;28.80
11989;DHT22;6054;50.966;7.094;2023-04-09T14:24:23;23.40;28.90
11989;DHT22;6054;50.966;7.094;2023-04-09T14:26:50;23.70;27.40
11989;DHT22;6054;50.966;7.094;2023-04-09T14:29:19;23.50;28.30
11989;DHT22;6054;50.966;7.094;2023-04-09T14:31:49;23.50;30.00
11989;DHT22;6054;50.966;7.094;2023-04-09T14:34:17;23.60;30.00
11989;DHT22;6054;50.966;7.094;2023-04-09T14:36:44;23.70;28.70
11989;DHT22;6054;50.966;7.094;2023-04-09T14:39:11;23.90;27.60
11989;DHT22;6054;50.966;7.094;2023-04-09T14:41:37;24.10;28.60
11989;DHT22;6054;50.966;7.094;2023-04-09T14:44:05;24.20;28.30
11989;DHT22;6054;50.966;7.094;2023-04-09T14:46:34;24.30;28.40
11989;DHT22;6054;50.966;7.094;2023-04-09T14:49:01;24.40;29.70
11989;DHT22;6054;50.966;7.094;2023-04-09T14:51:28;24.40;29.00
11989;DHT22;6054;50.966;7.094;2023-04-09T14:53:56;24.40;28.90
11989;DHT22;6054;50.966;7.094;2023-04-09T14:56:23;24.40;29.20
11989;DHT22;6054;50.966;7.094;2023-04-09T14:58:50;24.30;28.90
11989;DHT22;6054;50.966;7.094;2023-04-09T15:01:17;24.20;29.10
11989;DHT22;6054;50.966;7.094;2023-04-09T15:03:46;24.30;27.40
11989;DHT22;6054;50.966;7.094;2023-04-09T15:06:16;24.30;28.70
11989;DHT22;6054;50.966;7.094;2023-04-09T15:08:43;24.60;28.70
11989;DHT22;6054;50.966;7.094;2023-04-09T15:11:14;24.30;28.10
11989;DHT22;6054;50.966;7.094;2023-04-09T15:13:44;24.30;28.60
11989;DHT22;6054;50.966;7.094;2023-04-09T15:16:19;24.30;29.20
11989;DHT22;6054;50.966;7.094;2023-04-09T15:18:47;24.20;29.50
11989;DHT22;6054;50.966;7.094;2023-04-09T15:21:16;24.20;28.50
11989;DHT22;6054;50.966;7.094;2023-04-09T15:23:43;24.20;28.50
11989;DHT22;6054;50.966;7.094;2023-04-09T15:28:38;24.30;29.40
11989;DHT22;6054;50.966;7.094;2023-04-09T15:31:05;24.30;29.40
11989;DHT22;6054;50.966;7.094;2023-04-09T15:33:31;24.40;29.40
11989;DHT22;6054;50.966;7.094;2023-04-09T15:36:00;24.40;28.90
11989;DHT22;6054;50.966;7.094;2023-04-09T15:38:26;24.30;28.80
11989;DHT22;6054;50.966;7.094;2023-04-09T15:40:55;24.30;29.00
11989;DHT22;6054;50.966;7.094;2023-04-09T15:43:22;24.40;29.30
11989;DHT22;6054;50.966;7.094;2023-04-09T15:45:49;24.50;29.40
11989;DHT22;6054;50.966;7.094;2023-04-09T15:48:16;24.70;29.30
11989;DHT22;6054;50.966;7.094;2023-04-09T15:50:43;24.90;29.20
11989;DHT22;6054;50.966;7.094;2023-04-09T15:53:12;25.10;29.30